createdAt,value
2024-02-23T00:01:12.064Z,8.55
2024-02-23T00:03:38.870Z,8.52
2024-02-23T00:06:05.602Z,8.45
2024-02-23T00:08:32.746Z,8.40
2024-02-23T00:10:59.819Z,8.37
2024-02-23T00:13:26.593Z,8.33
2024-02-23T00:15:53.338Z,8.29
2024-02-23T00:18:21.250Z,8.27
2024-02-23T00:20:48.693Z,8.24
2024-02-23T00:23:15.544Z,8.23
2024-02-23T00:25:42.853Z,8.22
2024-02-23T00:28:09.536Z,8.20
2024-02-23T00:30:36.906Z,8.18
2024-02-23T00:33:04.178Z,8.17
2024-02-23T00:35:31.021Z,8.16
2024-02-23T00:37:57.677Z,8.15
2024-02-23T00:40:24.872Z,8.14
2024-02-23T00:42:51.497Z,8.14
2024-02-23T00:45:18.453Z,8.13
2024-02-23T00:47:46.136Z,8.12
2024-02-23T00:50:15.948Z,8.11
2024-02-23T00:52:42.601Z,8.08
2024-02-23T00:55:09.763Z,8.06
2024-02-23T00:57:37.972Z,8.04
2024-02-23T01:00:10.612Z,8.02
2024-02-23T01:02:38.240Z,7.99
2024-02-23T01:05:06.115Z,7.95
2024-02-23T01:07:33.830Z,7.92
2024-02-23T01:10:00.768Z,7.89
2024-02-23T01:12:27.429Z,7.87
2024-02-23T01:14:54.599Z,7.85
2024-02-23T01:17:21.337Z,7.83
2024-02-23T01:19:47.937Z,7.81
2024-02-23T01:22:16.290Z,7.79
2024-02-23T01:24:42.878Z,7.78
2024-02-23T01:27:09.562Z,7.76
2024-02-23T01:29:36.160Z,7.74
2024-02-23T01:32:03.241Z,7.71
2024-02-23T01:34:30.480Z,7.68
2024-02-23T01:36:57.163Z,7.64
2024-02-23T01:39:23.628Z,7.60
2024-02-23T01:41:50.203Z,7.57
2024-02-23T01:44:18.387Z,7.56
2024-02-23T01:46:46.024Z,7.56
2024-02-23T01:49:13.070Z,7.57
2024-02-23T01:51:40.033Z,7.57
2024-02-23T01:54:07.621Z,7.59
2024-02-23T01:56:37.782Z,7.60
2024-02-23T01:59:05.132Z,7.62
2024-02-23T02:01:33.038Z,7.59
2024-02-23T02:03:59.833Z,7.56
2024-02-23T02:06:26.653Z,7.53
2024-02-23T02:08:54.619Z,7.48
2024-02-23T02:11:21.550Z,7.43
2024-02-23T02:13:48.183Z,7.37
2024-02-23T02:16:15.079Z,7.31
2024-02-23T02:18:42.457Z,7.27
2024-02-23T02:21:09.346Z,7.24
2024-02-23T02:23:38.477Z,7.21
2024-02-23T02:26:05.655Z,7.18
2024-02-23T02:28:32.821Z,7.14
2024-02-23T02:30:59.353Z,7.11
2024-02-23T02:33:25.855Z,7.06
2024-02-23T02:35:52.592Z,7.03
2024-02-23T02:38:19.465Z,6.99
2024-02-23T02:40:46.613Z,6.95
2024-02-23T02:43:13.601Z,6.92
2024-02-23T02:45:40.278Z,6.90
2024-02-23T02:48:07.596Z,6.87
2024-02-23T02:50:34.772Z,6.85
2024-02-23T02:53:01.670Z,6.83
2024-02-23T02:55:28.273Z,6.81
2024-02-23T02:57:55.004Z,6.81
2024-02-23T03:00:21.519Z,6.79
2024-02-23T03:02:48.073Z,6.80
2024-02-23T03:05:14.871Z,6.80
2024-02-23T03:07:41.763Z,6.81
2024-02-23T03:10:08.463Z,6.81
2024-02-23T03:12:35.076Z,6.81
2024-02-23T03:15:03.980Z,6.79
2024-02-23T03:17:30.969Z,6.75
2024-02-23T03:19:58.904Z,6.71
2024-02-23T03:22:25.744Z,6.67
2024-02-23T03:24:52.245Z,6.62
2024-02-23T03:27:19.030Z,6.59
2024-02-23T03:29:45.646Z,6.57
2024-02-23T03:32:12.402Z,6.56
2024-02-23T03:34:39.183Z,6.54
2024-02-23T03:37:05.911Z,6.51
2024-02-23T03:39:33.913Z,6.51
2024-02-23T03:42:00.753Z,6.50
2024-02-23T03:44:27.392Z,6.50
2024-02-23T03:46:54.072Z,6.46
2024-02-23T03:49:20.780Z,6.43
2024-02-23T03:51:47.676Z,6.43
2024-02-23T03:54:14.252Z,6.42
2024-02-23T03:56:42.707Z,6.40
2024-02-23T03:59:10.739Z,6.39
2024-02-23T04:01:38.845Z,6.39
2024-02-23T04:04:05.975Z,6.38
2024-02-23T04:06:35.154Z,6.36
2024-02-23T04:09:02.200Z,6.35
2024-02-23T04:11:28.790Z,6.33
2024-02-23T04:13:55.433Z,6.29
2024-02-23T04:16:26.132Z,6.28
2024-02-23T04:18:53.774Z,6.26
2024-02-23T04:21:21.333Z,6.26
2024-02-23T04:23:48.125Z,6.26
2024-02-23T04:26:15.157Z,6.26
2024-02-23T04:28:43.279Z,6.26
2024-02-23T04:31:11.076Z,6.24
2024-02-23T04:33:38.818Z,6.22
2024-02-23T04:36:08.077Z,6.19
2024-02-23T04:38:35.679Z,6.18
2024-02-23T04:41:06.556Z,6.16
2024-02-23T04:43:33.711Z,6.15
2024-02-23T04:46:00.236Z,6.14
2024-02-23T04:48:27.263Z,6.10
2024-02-23T04:50:54.064Z,6.05
2024-02-23T04:53:21.093Z,6.01
2024-02-23T04:55:47.799Z,5.99
2024-02-23T04:58:15.178Z,5.95
2024-02-23T05:00:41.747Z,5.91
2024-02-23T05:03:12.477Z,5.86
2024-02-23T05:05:40.731Z,5.81
2024-02-23T05:08:07.671Z,5.78
2024-02-23T05:10:34.614Z,5.75
2024-02-23T05:13:01.489Z,5.71
2024-02-23T05:15:27.978Z,5.67
2024-02-23T05:17:54.490Z,5.64
2024-02-23T05:20:21.106Z,5.61
2024-02-23T05:22:48.415Z,5.58
2024-02-23T05:25:15.233Z,5.54
2024-02-23T05:27:41.764Z,5.52
2024-02-23T05:30:09.509Z,5.50
2024-02-23T05:32:36.209Z,5.47
2024-02-23T05:35:03.178Z,5.44
2024-02-23T05:37:29.787Z,5.43
2024-02-23T05:39:56.502Z,5.42
2024-02-23T05:42:23.199Z,5.40
2024-02-23T05:44:49.925Z,5.38
2024-02-23T05:47:17.096Z,5.35
2024-02-23T05:49:43.616Z,5.35
2024-02-23T05:52:10.747Z,5.34
2024-02-23T05:54:37.410Z,5.34
2024-02-23T05:57:04.689Z,5.34
2024-02-23T05:59:31.225Z,5.31
2024-02-23T06:01:58.558Z,5.28
2024-02-23T06:04:26.121Z,5.27
2024-02-23T06:06:53.622Z,5.27
2024-02-23T06:09:20.456Z,5.27
2024-02-23T06:11:47.916Z,5.27
2024-02-23T06:14:15.099Z,5.27
2024-02-23T06:16:42.106Z,5.28
2024-02-23T06:19:09.498Z,5.30
2024-02-23T06:21:36.212Z,5.30
2024-02-23T06:24:03.689Z,5.30
2024-02-23T06:26:30.508Z,5.31
2024-02-23T06:28:57.169Z,5.32
2024-02-23T06:31:24.002Z,5.33
2024-02-23T06:33:53.074Z,5.36
2024-02-23T06:36:19.994Z,5.37
2024-02-23T06:38:46.554Z,5.38
2024-02-23T06:41:13.640Z,5.40
2024-02-23T06:43:40.446Z,5.43
2024-02-23T06:46:11.154Z,5.47
2024-02-23T06:48:38.540Z,5.50
2024-02-23T06:51:10.326Z,5.52
2024-02-23T06:53:37.308Z,5.54
2024-02-23T06:56:04.509Z,5.57
2024-02-23T06:58:31.161Z,5.58
2024-02-23T07:00:57.790Z,5.62
2024-02-23T07:03:24.489Z,5.64
2024-02-23T07:05:51.690Z,5.67
2024-02-23T07:08:19.211Z,5.70
2024-02-23T07:10:46.786Z,5.73
2024-02-23T07:13:13.861Z,5.77
2024-02-23T07:15:40.445Z,5.80
2024-02-23T07:18:09.640Z,5.84
2024-02-23T07:20:38.185Z,5.87
2024-02-23T07:23:06.224Z,5.91
2024-02-23T07:25:32.827Z,5.95
2024-02-23T07:27:59.586Z,6.00
2024-02-23T07:30:26.459Z,6.07
2024-02-23T07:32:53.818Z,6.12
2024-02-23T07:35:21.155Z,6.19
2024-02-23T07:37:48.314Z,6.25
2024-02-23T07:40:17.251Z,6.28
2024-02-23T07:42:45.698Z,6.30
2024-02-23T07:45:12.350Z,6.30
2024-02-23T07:47:39.336Z,6.31
2024-02-23T07:50:06.517Z,6.35
2024-02-23T07:52:33.510Z,6.39
2024-02-23T07:55:03.699Z,6.40
2024-02-23T07:57:30.734Z,6.42
2024-02-23T07:59:57.347Z,6.45
2024-02-23T08:02:23.877Z,6.53
2024-02-23T08:04:51.562Z,6.67
2024-02-23T08:07:20.376Z,6.80
2024-02-23T08:09:46.876Z,6.93
2024-02-23T08:12:15.401Z,7.04
2024-02-23T08:14:43.578Z,7.18
2024-02-23T08:17:12.129Z,7.29
2024-02-23T08:19:39.268Z,7.36
2024-02-23T08:22:05.913Z,7.38
2024-02-23T08:24:32.661Z,7.39
2024-02-23T08:26:59.544Z,7.41
2024-02-23T08:29:27.536Z,7.45
2024-02-23T08:31:54.349Z,7.50
2024-02-23T08:34:21.202Z,7.52
2024-02-23T08:36:47.990Z,7.53
2024-02-23T08:39:14.838Z,7.54
2024-02-23T08:41:41.466Z,7.57
2024-02-23T08:44:08.289Z,7.57
2024-02-23T08:46:36.003Z,7.57
2024-02-23T08:49:03.000Z,7.56
2024-02-23T08:51:30.008Z,7.56
2024-02-23T08:54:01.090Z,7.54
2024-02-23T08:56:28.285Z,7.52
2024-02-23T08:58:55.487Z,7.50
2024-02-23T09:01:23.031Z,7.49
2024-02-23T09:03:49.821Z,7.50
2024-02-23T09:06:16.484Z,7.49
2024-02-23T09:08:43.373Z,7.48
2024-02-23T09:11:12.632Z,7.47
2024-02-23T09:13:39.453Z,7.43
2024-02-23T09:16:07.263Z,7.39
2024-02-23T09:18:33.790Z,7.36
2024-02-23T09:21:00.694Z,7.33
2024-02-23T09:23:28.013Z,7.34
2024-02-23T09:25:54.674Z,7.34
2024-02-23T09:28:21.556Z,7.34
2024-02-23T09:30:48.481Z,7.32
2024-02-23T09:33:15.274Z,7.30
2024-02-23T09:35:42.123Z,7.29
2024-02-23T09:38:09.028Z,7.28
2024-02-23T09:40:35.837Z,7.29
2024-02-23T09:43:02.991Z,7.30
2024-02-23T09:45:30.337Z,7.33
2024-02-23T09:47:58.979Z,7.39
2024-02-23T09:50:26.467Z,7.47
2024-02-23T09:52:53.650Z,7.61
2024-02-23T09:55:22.656Z,7.84
2024-02-23T09:57:53.262Z,8.22
2024-02-23T10:00:19.941Z,8.60
2024-02-23T10:02:46.575Z,8.93
2024-02-23T10:05:15.144Z,9.22
2024-02-23T10:07:42.473Z,9.49
2024-02-23T10:10:10.103Z,9.57
2024-02-23T10:12:36.978Z,9.50
2024-02-23T10:15:05.494Z,9.38
2024-02-23T10:17:36.228Z,9.33
2024-02-23T10:20:07.031Z,9.39
2024-02-23T10:22:33.688Z,9.47
2024-02-23T10:25:01.213Z,9.55
2024-02-23T10:27:29.055Z,9.65
2024-02-23T10:29:56.455Z,9.82
2024-02-23T10:32:25.543Z,10.02
2024-02-23T10:34:56.161Z,10.13
2024-02-23T10:37:24.505Z,10.24
2024-02-23T10:39:55.754Z,10.35
2024-02-23T10:42:25.772Z,10.44
2024-02-23T10:44:56.337Z,10.43
2024-02-23T10:47:24.328Z,10.51
2024-02-23T10:49:51.550Z,10.51
2024-02-23T10:52:19.227Z,10.41
2024-02-23T10:54:50.104Z,10.33
2024-02-23T10:57:19.803Z,10.22
2024-02-23T10:59:50.330Z,10.06
2024-02-23T11:02:21.767Z,9.90
2024-02-23T11:04:52.067Z,9.78
2024-02-23T11:07:22.758Z,9.97
2024-02-23T11:09:59.771Z,10.67
2024-02-23T11:12:29.787Z,10.87
2024-02-23T11:15:01.152Z,10.85
2024-02-23T11:17:29.608Z,10.66
2024-02-23T11:19:57.557Z,10.46
2024-02-23T11:22:37.677Z,10.24
2024-02-23T11:25:09.736Z,9.98
2024-02-23T11:27:37.235Z,9.75
2024-02-23T11:30:15.029Z,9.59
2024-02-23T11:32:44.999Z,9.49
2024-02-23T11:35:13.608Z,9.36
2024-02-23T11:37:50.434Z,9.20
2024-02-23T11:40:19.109Z,9.15
2024-02-23T11:42:45.848Z,9.15
2024-02-23T11:45:12.825Z,9.11
2024-02-23T11:47:40.569Z,9.04
2024-02-23T11:50:10.017Z,8.99
2024-02-23T11:52:38.807Z,8.93
2024-02-23T11:55:06.713Z,8.84
2024-02-23T11:57:39.480Z,8.76
2024-02-23T12:00:10.516Z,8.83
2024-02-23T12:02:37.117Z,9.88
2024-02-23T12:05:04.139Z,11.35
2024-02-23T12:07:31.667Z,12.72
2024-02-23T12:09:58.479Z,12.73
2024-02-23T12:12:27.330Z,12.38
2024-02-23T12:14:54.615Z,11.96
2024-02-23T12:17:21.138Z,11.51
2024-02-23T12:19:47.851Z,11.12
2024-02-23T12:22:14.420Z,10.80
2024-02-23T12:24:43.383Z,10.66
2024-02-23T12:27:10.199Z,10.58
2024-02-23T12:29:37.201Z,10.40
2024-02-23T12:32:07.557Z,10.21
2024-02-23T12:34:35.721Z,10.09
2024-02-23T12:37:06.448Z,10.04
2024-02-23T12:39:33.235Z,10.07
2024-02-23T12:41:59.742Z,10.03
2024-02-23T12:44:26.282Z,9.91
2024-02-23T12:46:53.210Z,9.75
2024-02-23T12:49:19.846Z,9.60
2024-02-23T12:51:46.751Z,9.51
2024-02-23T12:54:13.313Z,9.50
2024-02-23T12:56:39.907Z,9.99
2024-02-23T12:59:06.558Z,10.86
2024-02-23T13:01:37.558Z,10.88
2024-02-23T13:04:10.933Z,10.73
2024-02-23T13:06:41.389Z,10.49
2024-02-23T13:09:09.699Z,10.24
2024-02-23T13:11:39.589Z,9.97
2024-02-23T13:14:06.288Z,9.71
2024-02-23T13:16:33.277Z,9.46
2024-02-23T13:19:00.025Z,9.20
2024-02-23T13:21:26.610Z,8.94
2024-02-23T13:23:53.464Z,8.69
2024-02-23T13:26:20.081Z,8.45
2024-02-23T13:28:47.083Z,8.27
2024-02-23T13:31:14.854Z,8.13
2024-02-23T13:33:42.337Z,8.04
2024-02-23T13:36:09.221Z,7.99
2024-02-23T13:38:39.679Z,7.98
2024-02-23T13:41:07.200Z,7.96
2024-02-23T13:43:35.014Z,7.95
2024-02-23T13:46:01.846Z,7.99
2024-02-23T13:48:28.637Z,8.11
2024-02-23T13:50:55.961Z,9.89
2024-02-23T13:53:23.022Z,14.10
2024-02-23T13:55:51.059Z,17.52
2024-02-23T13:58:18.594Z,17.61
2024-02-23T14:00:45.483Z,16.80
2024-02-23T14:03:22.590Z,15.95
2024-02-23T14:05:49.892Z,15.07
2024-02-23T14:08:16.666Z,14.33
2024-02-23T14:10:44.634Z,13.65
2024-02-23T14:13:11.853Z,13.05
2024-02-23T14:15:39.527Z,12.55
2024-02-23T14:18:06.229Z,12.19
2024-02-23T14:20:33.133Z,12.00
2024-02-23T14:23:00.267Z,12.02
2024-02-23T14:25:26.820Z,12.35
2024-02-23T14:27:53.545Z,12.29
2024-02-23T14:30:20.478Z,12.13
2024-02-23T14:32:47.183Z,11.94
2024-02-23T14:35:14.529Z,11.74
2024-02-23T14:37:41.360Z,11.50
2024-02-23T14:40:08.922Z,11.25
2024-02-23T14:42:35.721Z,11.03
2024-02-23T14:45:02.951Z,10.89
2024-02-23T14:47:35.396Z,10.84
2024-02-23T14:50:07.266Z,10.80
2024-02-23T14:52:34.392Z,10.73
2024-02-23T14:55:01.268Z,10.65
2024-02-23T14:57:27.741Z,10.52
2024-02-23T14:59:54.235Z,10.35
2024-02-23T15:02:22.659Z,10.21
2024-02-23T15:04:49.890Z,10.15
2024-02-23T15:07:16.968Z,10.18
2024-02-23T15:09:43.873Z,11.48
2024-02-23T15:12:11.350Z,12.13
2024-02-23T15:14:38.905Z,13.55
2024-02-23T15:17:05.663Z,16.24
2024-02-23T15:19:32.465Z,18.45
2024-02-23T15:21:59.218Z,20.27
2024-02-23T15:24:25.949Z,21.91
2024-02-23T15:26:52.697Z,23.15
2024-02-23T15:29:19.779Z,23.90
2024-02-23T15:31:46.715Z,24.34
2024-02-23T15:34:13.847Z,24.36
2024-02-23T15:36:40.961Z,24.02
2024-02-23T15:39:08.132Z,23.24
2024-02-23T15:41:38.138Z,22.24
2024-02-23T15:44:04.944Z,21.27
2024-02-23T15:46:32.446Z,20.45
2024-02-23T15:48:59.137Z,19.90
2024-02-23T15:51:37.349Z,19.51
2024-02-23T15:54:13.835Z,19.17
2024-02-23T15:56:41.122Z,18.84
2024-02-23T15:59:09.872Z,18.36
2024-02-23T16:01:38.238Z,17.71
2024-02-23T16:04:06.633Z,17.15
2024-02-23T16:06:36.572Z,16.57
2024-02-23T16:09:03.994Z,15.82
2024-02-23T16:11:33.477Z,15.14
2024-02-23T16:14:00.690Z,14.44
2024-02-23T16:16:27.364Z,13.75
2024-02-23T16:18:54.014Z,13.13
2024-02-23T16:21:20.946Z,12.58
2024-02-23T16:23:48.134Z,12.10
2024-02-23T16:26:14.928Z,11.66
2024-02-23T16:28:41.767Z,11.28
2024-02-23T16:31:08.560Z,10.93
2024-02-23T16:33:35.081Z,10.60
2024-02-23T16:36:04.963Z,10.32
2024-02-23T16:38:31.855Z,10.06
2024-02-23T16:40:58.764Z,9.85
2024-02-23T16:43:25.336Z,9.66
2024-02-23T16:45:51.865Z,9.49
2024-02-23T16:48:18.903Z,9.35
2024-02-23T16:50:47.753Z,9.22
2024-02-23T16:53:15.110Z,9.10
2024-02-23T16:55:42.262Z,8.98
2024-02-23T16:58:10.059Z,8.87
2024-02-23T17:00:36.712Z,8.79
2024-02-23T17:03:04.563Z,8.70
2024-02-23T17:05:31.362Z,8.61
2024-02-23T17:07:58.133Z,8.54
2024-02-23T17:10:25.297Z,8.49
2024-02-23T17:12:54.057Z,8.43
2024-02-23T17:15:20.926Z,8.40
2024-02-23T17:17:48.278Z,8.37
2024-02-23T17:20:15.175Z,8.34
2024-02-23T17:22:43.497Z,8.30
2024-02-23T17:25:10.388Z,8.27
2024-02-23T17:27:39.016Z,8.25
2024-02-23T17:30:06.984Z,8.24
2024-02-23T17:32:33.914Z,8.23
2024-02-23T17:35:00.712Z,8.22
2024-02-23T17:37:27.309Z,8.21
2024-02-23T17:39:59.895Z,8.20
2024-02-23T17:42:26.391Z,8.18
2024-02-23T17:44:52.967Z,8.17
2024-02-23T17:47:20.238Z,8.16
2024-02-23T17:49:49.008Z,8.15
2024-02-23T17:52:16.513Z,8.13
2024-02-23T17:54:43.177Z,8.13
2024-02-23T17:57:09.787Z,8.13
2024-02-23T17:59:38.182Z,8.13
2024-02-23T18:02:05.497Z,8.13
2024-02-23T18:04:32.641Z,8.12
2024-02-23T18:07:00.434Z,8.11
2024-02-23T18:09:27.233Z,8.11
2024-02-23T18:11:54.039Z,8.11
2024-02-23T18:14:21.056Z,8.12
2024-02-23T18:16:49.172Z,8.12
2024-02-23T18:19:16.562Z,8.13
2024-02-23T18:21:43.776Z,8.13
2024-02-23T18:24:10.259Z,8.14
2024-02-23T18:26:39.599Z,8.15
2024-02-23T18:29:08.197Z,8.14
2024-02-23T18:31:34.789Z,8.15
2024-02-23T18:34:01.702Z,8.15
2024-02-23T18:36:28.414Z,8.13
2024-02-23T18:38:55.122Z,8.11
2024-02-23T18:41:21.643Z,8.10
2024-02-23T18:43:48.841Z,8.09
2024-02-23T18:46:15.877Z,8.08
2024-02-23T18:48:42.745Z,8.07
2024-02-23T18:51:09.648Z,8.03
2024-02-23T18:53:37.151Z,7.98
2024-02-23T18:56:07.004Z,7.94
2024-02-23T18:58:34.206Z,7.90
2024-02-23T19:01:01.205Z,7.87
2024-02-23T19:03:28.503Z,7.84
2024-02-23T19:05:55.527Z,7.83
2024-02-23T19:08:22.260Z,7.80
2024-02-23T19:10:48.989Z,7.78
2024-02-23T19:13:15.577Z,7.75
2024-02-23T19:15:44.776Z,7.74
2024-02-23T19:18:11.548Z,7.74
2024-02-23T19:20:38.380Z,7.74
2024-02-23T19:23:05.860Z,7.75
2024-02-23T19:25:32.690Z,7.75
2024-02-23T19:28:00.882Z,7.76
2024-02-23T19:30:28.219Z,7.76
2024-02-23T19:32:55.484Z,7.75
2024-02-23T19:35:22.305Z,7.75
2024-02-23T19:37:49.119Z,7.76
2024-02-23T19:40:21.934Z,7.77
2024-02-23T19:42:52.195Z,7.78
2024-02-23T19:45:18.758Z,7.78
2024-02-23T19:47:45.605Z,7.78
2024-02-23T19:50:12.387Z,7.78
2024-02-23T19:52:39.139Z,7.77
2024-02-23T19:55:07.324Z,7.77
2024-02-23T19:57:34.326Z,7.77
2024-02-23T20:00:01.665Z,7.75
2024-02-23T20:02:28.275Z,7.73
2024-02-23T20:04:56.283Z,7.71
2024-02-23T20:07:24.120Z,7.68
2024-02-23T20:09:51.089Z,7.65
2024-02-23T20:12:19.424Z,7.63
2024-02-23T20:14:47.793Z,7.61
2024-02-23T20:17:16.271Z,7.59
2024-02-23T20:19:43.147Z,7.56
2024-02-23T20:22:10.074Z,7.54
2024-02-23T20:24:39.140Z,7.51
2024-02-23T20:27:07.810Z,7.47
2024-02-23T20:29:37.124Z,7.45
2024-02-23T20:32:13.334Z,7.42
2024-02-23T20:34:46.946Z,7.39
2024-02-23T20:37:14.168Z,7.37
2024-02-23T20:39:40.895Z,7.33
2024-02-23T20:42:08.467Z,7.32
2024-02-23T20:44:35.520Z,7.32
2024-02-23T20:47:03.017Z,7.30
2024-02-23T20:49:32.333Z,7.30
2024-02-23T20:51:59.426Z,7.29
2024-02-23T20:54:26.585Z,7.29
2024-02-23T20:56:53.138Z,7.28
2024-02-23T20:59:19.726Z,7.27
2024-02-23T21:01:46.311Z,7.24
2024-02-23T21:04:12.921Z,7.19
2024-02-23T21:06:40.186Z,7.14
2024-02-23T21:09:06.906Z,7.09
2024-02-23T21:11:33.659Z,7.07
2024-02-23T21:14:00.482Z,7.05
2024-02-23T21:16:27.076Z,7.03
2024-02-23T21:18:53.706Z,6.99
2024-02-23T21:21:21.459Z,6.95
2024-02-23T21:23:49.491Z,6.93
2024-02-23T21:26:16.683Z,6.91
2024-02-23T21:28:43.815Z,6.88
2024-02-23T21:31:10.462Z,6.86
2024-02-23T21:33:37.159Z,6.84
2024-02-23T21:36:04.376Z,6.82
2024-02-23T21:41:25.104Z,6.75
2024-02-23T21:43:51.831Z,6.73
2024-02-23T21:46:18.342Z,6.70
2024-02-23T21:48:46.085Z,6.67
2024-02-23T21:51:13.270Z,6.65
2024-02-23T21:53:40.082Z,6.63
2024-02-23T21:56:07.221Z,6.62
2024-02-23T21:58:34.614Z,6.60
2024-02-23T22:01:01.939Z,6.59
2024-02-23T22:03:30.087Z,6.58
2024-02-23T22:05:56.730Z,6.56
2024-02-23T22:08:23.377Z,6.54
2024-02-23T22:10:50.300Z,6.51
2024-02-23T22:13:17.087Z,6.48
2024-02-23T22:15:43.818Z,6.46
2024-02-23T22:18:10.836Z,6.45
2024-02-23T22:20:37.488Z,6.42
2024-02-23T22:23:04.419Z,6.39
2024-02-23T22:25:31.213Z,6.36
2024-02-23T22:27:57.859Z,6.35
2024-02-23T22:30:24.542Z,6.35
2024-02-23T22:32:51.301Z,6.32
2024-02-23T22:35:20.062Z,6.28
2024-02-23T22:37:46.544Z,6.25
2024-02-23T22:40:14.572Z,6.22
2024-02-23T22:42:41.770Z,6.19
2024-02-23T22:45:10.091Z,6.17
2024-02-23T22:47:36.633Z,6.14
2024-02-23T22:50:03.586Z,6.11
2024-02-23T22:52:30.650Z,6.09
2024-02-23T22:54:57.487Z,6.05
2024-02-23T22:57:24.083Z,6.02
2024-02-23T22:59:50.899Z,5.99
2024-02-23T23:02:17.853Z,5.97
2024-02-23T23:04:45.094Z,5.96
2024-02-23T23:07:12.538Z,5.95
2024-02-23T23:09:39.406Z,5.94
2024-02-23T23:12:06.156Z,5.93
2024-02-23T23:14:33.060Z,5.93
2024-02-23T23:16:59.947Z,5.91
2024-02-23T23:19:26.562Z,5.90
2024-02-23T23:21:53.512Z,5.88
2024-02-23T23:24:21.283Z,5.86
2024-02-23T23:26:48.476Z,5.81
2024-02-23T23:29:15.614Z,5.78
2024-02-23T23:31:42.239Z,5.76
2024-02-23T23:34:08.820Z,5.75
2024-02-23T23:36:35.611Z,5.74
2024-02-23T23:39:02.316Z,5.73
2024-02-23T23:41:28.969Z,5.74
2024-02-23T23:43:56.043Z,5.74
2024-02-23T23:46:22.629Z,5.74
2024-02-23T23:48:49.166Z,5.74
2024-02-23T23:51:15.857Z,5.75
2024-02-23T23:53:42.622Z,5.76
2024-02-23T23:56:12.978Z,5.76
2024-02-23T23:58:39.935Z,5.76
